sensor_id;sensor_type;location;lat;lon;timestamp;P1;durP1;ratioP1;P2;durP2;ratioP2
39264;SDS011;42646;51.910;7.724;2024-01-11T00:00:40;35.80;;;16.63;;
39264;SDS011;42646;51.910;7.724;2024-01-11T00:03:07;38.65;;;17.27;;
39264;SDS011;42646;51.910;7.724;2024-01-11T00:05:35;38.60;;;17.50;;
39264;SDS011;42646;51.910;7.724;2024-01-11T00:08:03;37.50;;;16.83;;
39264;SDS011;42646;51.910;7.724;2024-01-11T00:10:31;35.13;;;15.77;;
39264;SDS011;42646;51.910;7.724;2024-01-11T00:13:00;38.97;;;16.13;;
39264;SDS011;42646;51.910;7.724;2024-01-11T00:15:28;36.50;;;17.35;;
39264;SDS011;42646;51.910;7.724;2024-01-11T00:17:56;40.10;;;16.65;;
39264;SDS011;42646;51.910;7.724;2024-01-11T00:20:24;36.75;;;16.55;;
39264;SDS011;42646;51.910;7.724;2024-01-11T00:22:51;36.78;;;17.20;;
39264;SDS011;42646;51.910;7.724;2024-01-11T00:25:19;35.25;;;16.77;;
39264;SDS011;42646;51.910;7.724;2024-01-11T00:27:47;36.83;;;17.52;;
39264;SDS011;42646;51.910;7.724;2024-01-11T00:30:16;33.72;;;16.05;;
39264;SDS011;42646;51.910;7.724;2024-01-11T00:32:44;34.65;;;16.23;;
39264;SDS011;42646;51.910;7.724;2024-01-11T00:35:12;35.35;;;16.48;;
39264;SDS011;42646;51.910;7.724;2024-01-11T00:37:39;36.25;;;15.88;;
39264;SDS011;42646;51.910;7.724;2024-01-11T00:40:07;41.10;;;17.38;;
39264;SDS011;42646;51.910;7.724;2024-01-11T00:42:35;37.95;;;17.10;;
39264;SDS011;42646;51.910;7.724;2024-01-11T00:45:04;34.95;;;16.60;;
39264;SDS011;42646;51.910;7.724;2024-01-11T00:47:33;39.72;;;16.55;;
39264;SDS011;42646;51.910;7.724;2024-01-11T00:50:01;36.42;;;15.93;;
39264;SDS011;42646;51.910;7.724;2024-01-11T00:52:28;35.38;;;15.70;;
39264;SDS011;42646;51.910;7.724;2024-01-11T00:54:56;36.88;;;16.85;;
39264;SDS011;42646;51.910;7.724;2024-01-11T00:57:24;35.42;;;16.90;;
39264;SDS011;42646;51.910;7.724;2024-01-11T00:59:51;32.72;;;15.60;;
39264;SDS011;42646;51.910;7.724;2024-01-11T01:02:19;35.28;;;15.98;;
39264;SDS011;42646;51.910;7.724;2024-01-11T01:04:48;33.13;;;16.13;;
39264;SDS011;42646;51.910;7.724;2024-01-11T01:07:16;34.78;;;15.57;;
39264;SDS011;42646;51.910;7.724;2024-01-11T01:09:44;35.35;;;15.85;;
39264;SDS011;42646;51.910;7.724;2024-01-11T01:12:11;36.72;;;15.45;;
39264;SDS011;42646;51.910;7.724;2024-01-11T01:14:39;36.85;;;16.70;;
39264;SDS011;42646;51.910;7.724;2024-01-11T01:17:06;33.38;;;15.23;;
39264;SDS011;42646;51.910;7.724;2024-01-11T01:19:34;34.38;;;15.95;;
39264;SDS011;42646;51.910;7.724;2024-01-11T01:22:04;35.92;;;15.73;;
39264;SDS011;42646;51.910;7.724;2024-01-11T01:24:31;35.22;;;16.60;;
39264;SDS011;42646;51.910;7.724;2024-01-11T01:26:59;34.25;;;14.85;;
39264;SDS011;42646;51.910;7.724;2024-01-11T01:29:27;35.17;;;16.08;;
39264;SDS011;42646;51.910;7.724;2024-01-11T01:31:55;32.95;;;15.60;;
39264;SDS011;42646;51.910;7.724;2024-01-11T01:34:22;31.85;;;15.38;;
39264;SDS011;42646;51.910;7.724;2024-01-11T01:36:50;35.42;;;16.60;;
39264;SDS011;42646;51.910;7.724;2024-01-11T01:39:19;37.47;;;17.05;;
39264;SDS011;42646;51.910;7.724;2024-01-11T01:41:47;31.17;;;16.15;;
39264;SDS011;42646;51.910;7.724;2024-01-11T01:44:14;38.92;;;17.08;;
39264;SDS011;42646;51.910;7.724;2024-01-11T01:46:42;32.50;;;15.05;;
39264;SDS011;42646;51.910;7.724;2024-01-11T01:49:10;35.10;;;15.48;;
39264;SDS011;42646;51.910;7.724;2024-01-11T01:51:39;36.13;;;15.70;;
39264;SDS011;42646;51.910;7.724;2024-01-11T01:54:07;34.63;;;15.27;;
39264;SDS011;42646;51.910;7.724;2024-01-11T01:56:36;32.38;;;15.60;;
39264;SDS011;42646;51.910;7.724;2024-01-11T01:59:05;33.13;;;15.57;;
39264;SDS011;42646;51.910;7.724;2024-01-11T02:01:33;33.30;;;15.48;;
39264;SDS011;42646;51.910;7.724;2024-01-11T02:04:01;38.15;;;15.98;;
39264;SDS011;42646;51.910;7.724;2024-01-11T02:06:29;34.83;;;15.60;;
39264;SDS011;42646;51.910;7.724;2024-01-11T02:09:02;34.88;;;15.88;;
39264;SDS011;42646;51.910;7.724;2024-01-11T02:11:30;36.15;;;15.30;;
39264;SDS011;42646;51.910;7.724;2024-01-11T02:13:59;32.85;;;14.73;;
39264;SDS011;42646;51.910;7.724;2024-01-11T02:16:27;34.75;;;15.80;;
39264;SDS011;42646;51.910;7.724;2024-01-11T02:18:55;31.88;;;13.55;;
39264;SDS011;42646;51.910;7.724;2024-01-11T02:21:23;32.83;;;14.93;;
39264;SDS011;42646;51.910;7.724;2024-01-11T02:23:56;31.90;;;15.05;;
39264;SDS011;42646;51.910;7.724;2024-01-11T02:26:29;33.60;;;14.40;;
39264;SDS011;42646;51.910;7.724;2024-01-11T02:28:56;33.58;;;14.98;;
39264;SDS011;42646;51.910;7.724;2024-01-11T02:31:24;31.48;;;14.10;;
39264;SDS011;42646;51.910;7.724;2024-01-11T02:33:52;31.98;;;15.55;;
39264;SDS011;42646;51.910;7.724;2024-01-11T02:36:21;33.30;;;14.98;;
39264;SDS011;42646;51.910;7.724;2024-01-11T02:38:49;28.75;;;14.10;;
39264;SDS011;42646;51.910;7.724;2024-01-11T02:41:20;32.03;;;14.77;;
39264;SDS011;42646;51.910;7.724;2024-01-11T02:43:47;36.88;;;15.50;;
39264;SDS011;42646;51.910;7.724;2024-01-11T02:46:16;27.67;;;13.10;;
39264;SDS011;42646;51.910;7.724;2024-01-11T02:48:44;30.95;;;14.35;;
39264;SDS011;42646;51.910;7.724;2024-01-11T02:51:12;33.00;;;14.48;;
39264;SDS011;42646;51.910;7.724;2024-01-11T02:53:39;34.65;;;14.63;;
39264;SDS011;42646;51.910;7.724;2024-01-11T02:56:07;30.85;;;14.02;;
39264;SDS011;42646;51.910;7.724;2024-01-11T02:58:36;31.73;;;14.45;;
39264;SDS011;42646;51.910;7.724;2024-01-11T03:01:04;31.73;;;14.48;;
39264;SDS011;42646;51.910;7.724;2024-01-11T03:03:32;33.55;;;15.02;;
39264;SDS011;42646;51.910;7.724;2024-01-11T03:05:59;34.28;;;14.93;;
39264;SDS011;42646;51.910;7.724;2024-01-11T03:08:27;33.33;;;14.65;;
39264;SDS011;42646;51.910;7.724;2024-01-11T03:10:55;31.65;;;14.68;;
39264;SDS011;42646;51.910;7.724;2024-01-11T03:13:23;30.25;;;14.20;;
39264;SDS011;42646;51.910;7.724;2024-01-11T03:15:52;29.42;;;14.75;;
39264;SDS011;42646;51.910;7.724;2024-01-11T03:18:19;28.02;;;13.52;;
39264;SDS011;42646;51.910;7.724;2024-01-11T03:20:47;31.77;;;14.57;;
39264;SDS011;42646;51.910;7.724;2024-01-11T03:23:15;36.05;;;14.73;;
39264;SDS011;42646;51.910;7.724;2024-01-11T03:25:42;29.95;;;14.27;;
39264;SDS011;42646;51.910;7.724;2024-01-11T03:28:10;34.60;;;15.00;;
39264;SDS011;42646;51.910;7.724;2024-01-11T03:30:38;28.55;;;13.52;;
39264;SDS011;42646;51.910;7.724;2024-01-11T03:33:07;29.27;;;13.90;;
39264;SDS011;42646;51.910;7.724;2024-01-11T03:35:35;34.47;;;14.07;;
39264;SDS011;42646;51.910;7.724;2024-01-11T03:38:05;27.08;;;13.50;;
39264;SDS011;42646;51.910;7.724;2024-01-11T03:40:32;30.77;;;13.80;;
39264;SDS011;42646;51.910;7.724;2024-01-11T03:43:00;30.58;;;13.80;;
39264;SDS011;42646;51.910;7.724;2024-01-11T03:45:28;30.20;;;14.38;;
39264;SDS011;42646;51.910;7.724;2024-01-11T03:47:56;28.92;;;13.95;;
39264;SDS011;42646;51.910;7.724;2024-01-11T03:50:25;27.95;;;13.40;;
39264;SDS011;42646;51.910;7.724;2024-01-11T03:52:52;32.40;;;13.48;;
39264;SDS011;42646;51.910;7.724;2024-01-11T03:55:20;29.23;;;13.02;;
39264;SDS011;42646;51.910;7.724;2024-01-11T03:57:48;30.48;;;13.75;;
39264;SDS011;42646;51.910;7.724;2024-01-11T04:00:15;33.20;;;13.32;;
39264;SDS011;42646;51.910;7.724;2024-01-11T04:02:43;32.72;;;14.45;;
39264;SDS011;42646;51.910;7.724;2024-01-11T04:05:11;26.13;;;13.43;;
39264;SDS011;42646;51.910;7.724;2024-01-11T04:07:41;33.80;;;14.52;;
39264;SDS011;42646;51.910;7.724;2024-01-11T04:10:08;28.70;;;13.20;;
39264;SDS011;42646;51.910;7.724;2024-01-11T04:12:36;28.48;;;13.77;;
39264;SDS011;42646;51.910;7.724;2024-01-11T04:15:04;25.58;;;12.52;;
39264;SDS011;42646;51.910;7.724;2024-01-11T04:17:32;31.42;;;13.55;;
39264;SDS011;42646;51.910;7.724;2024-01-11T04:20:00;27.95;;;13.13;;
39264;SDS011;42646;51.910;7.724;2024-01-11T04:22:28;32.28;;;14.13;;
39264;SDS011;42646;51.910;7.724;2024-01-11T04:24:57;31.35;;;13.82;;
39264;SDS011;42646;51.910;7.724;2024-01-11T04:27:25;28.95;;;13.52;;
39264;SDS011;42646;51.910;7.724;2024-01-11T04:29:52;26.80;;;12.95;;
39264;SDS011;42646;51.910;7.724;2024-01-11T04:32:20;29.17;;;13.93;;
39264;SDS011;42646;51.910;7.724;2024-01-11T04:34:48;30.58;;;13.18;;
39264;SDS011;42646;51.910;7.724;2024-01-11T04:37:15;28.88;;;13.27;;
39264;SDS011;42646;51.910;7.724;2024-01-11T04:39:43;27.95;;;13.27;;
39264;SDS011;42646;51.910;7.724;2024-01-11T04:42:14;27.48;;;13.02;;
39264;SDS011;42646;51.910;7.724;2024-01-11T04:44:41;27.20;;;12.93;;
39264;SDS011;42646;51.910;7.724;2024-01-11T04:47:09;29.38;;;13.52;;
39264;SDS011;42646;51.910;7.724;2024-01-11T04:49:37;32.78;;;13.63;;
39264;SDS011;42646;51.910;7.724;2024-01-11T04:52:05;32.28;;;13.02;;
39264;SDS011;42646;51.910;7.724;2024-01-11T04:54:34;29.40;;;13.32;;
39264;SDS011;42646;51.910;7.724;2024-01-11T04:57:02;32.67;;;14.07;;
39264;SDS011;42646;51.910;7.724;2024-01-11T04:59:31;34.78;;;15.52;;
39264;SDS011;42646;51.910;7.724;2024-01-11T05:01:59;30.92;;;14.57;;
39264;SDS011;42646;51.910;7.724;2024-01-11T05:04:27;27.98;;;13.43;;
39264;SDS011;42646;51.910;7.724;2024-01-11T05:06:54;32.20;;;13.63;;
39264;SDS011;42646;51.910;7.724;2024-01-11T05:09:22;27.42;;;12.80;;
39264;SDS011;42646;51.910;7.724;2024-01-11T05:11:50;28.10;;;13.05;;
39264;SDS011;42646;51.910;7.724;2024-01-11T05:14:18;29.83;;;13.43;;
39264;SDS011;42646;51.910;7.724;2024-01-11T05:16:47;31.60;;;14.05;;
39264;SDS011;42646;51.910;7.724;2024-01-11T05:19:14;32.30;;;13.70;;
39264;SDS011;42646;51.910;7.724;2024-01-11T05:21:42;33.38;;;13.77;;
39264;SDS011;42646;51.910;7.724;2024-01-11T05:24:09;30.15;;;13.80;;
39264;SDS011;42646;51.910;7.724;2024-01-11T05:26:37;30.02;;;13.27;;
39264;SDS011;42646;51.910;7.724;2024-01-11T05:29:05;27.52;;;13.43;;
39264;SDS011;42646;51.910;7.724;2024-01-11T05:31:33;27.50;;;14.13;;
39264;SDS011;42646;51.910;7.724;2024-01-11T05:34:02;29.13;;;13.60;;
39264;SDS011;42646;51.910;7.724;2024-01-11T05:36:30;34.30;;;15.32;;
39264;SDS011;42646;51.910;7.724;2024-01-11T05:38:57;33.85;;;14.40;;
39264;SDS011;42646;51.910;7.724;2024-01-11T05:41:25;32.65;;;13.15;;
39264;SDS011;42646;51.910;7.724;2024-01-11T05:43:53;31.35;;;13.68;;
39264;SDS011;42646;51.910;7.724;2024-01-11T05:46:21;31.10;;;13.68;;
39264;SDS011;42646;51.910;7.724;2024-01-11T05:48:49;29.75;;;13.00;;
39264;SDS011;42646;51.910;7.724;2024-01-11T05:51:18;28.20;;;13.75;;
39264;SDS011;42646;51.910;7.724;2024-01-11T05:53:46;28.17;;;13.65;;
39264;SDS011;42646;51.910;7.724;2024-01-11T05:56:13;29.25;;;13.70;;
39264;SDS011;42646;51.910;7.724;2024-01-11T05:58:41;31.38;;;13.93;;
39264;SDS011;42646;51.910;7.724;2024-01-11T06:01:09;30.13;;;13.93;;
39264;SDS011;42646;51.910;7.724;2024-01-11T06:03:37;29.08;;;12.85;;
39264;SDS011;42646;51.910;7.724;2024-01-11T06:06:05;30.10;;;13.23;;
39264;SDS011;42646;51.910;7.724;2024-01-11T06:08:35;26.75;;;12.77;;
39264;SDS011;42646;51.910;7.724;2024-01-11T06:11:03;31.88;;;14.05;;
39264;SDS011;42646;51.910;7.724;2024-01-11T06:13:34;33.10;;;13.65;;
39264;SDS011;42646;51.910;7.724;2024-01-11T06:16:01;29.73;;;12.80;;
39264;SDS011;42646;51.910;7.724;2024-01-11T06:18:29;26.75;;;13.48;;
39264;SDS011;42646;51.910;7.724;2024-01-11T06:20:57;31.42;;;14.15;;
39264;SDS011;42646;51.910;7.724;2024-01-11T06:23:25;28.58;;;13.50;;
39264;SDS011;42646;51.910;7.724;2024-01-11T06:25:54;32.35;;;13.35;;
39264;SDS011;42646;51.910;7.724;2024-01-11T06:28:21;31.90;;;14.10;;
39264;SDS011;42646;51.910;7.724;2024-01-11T06:30:49;29.83;;;14.23;;
39264;SDS011;42646;51.910;7.724;2024-01-11T06:33:17;28.83;;;15.10;;
39264;SDS011;42646;51.910;7.724;2024-01-11T06:35:46;28.13;;;13.82;;
39264;SDS011;42646;51.910;7.724;2024-01-11T06:38:14;26.75;;;13.35;;
39264;SDS011;42646;51.910;7.724;2024-01-11T06:40:42;28.33;;;13.40;;
39264;SDS011;42646;51.910;7.724;2024-01-11T06:43:11;31.85;;;14.35;;
39264;SDS011;42646;51.910;7.724;2024-01-11T06:45:39;27.58;;;12.80;;
39264;SDS011;42646;51.910;7.724;2024-01-11T06:48:06;32.58;;;14.07;;
39264;SDS011;42646;51.910;7.724;2024-01-11T06:50:34;29.58;;;13.60;;
39264;SDS011;42646;51.910;7.724;2024-01-11T06:53:02;28.10;;;13.73;;
39264;SDS011;42646;51.910;7.724;2024-01-11T06:55:31;25.08;;;12.70;;
39264;SDS011;42646;51.910;7.724;2024-01-11T06:57:58;31.08;;;13.38;;
39264;SDS011;42646;51.910;7.724;2024-01-11T07:00:29;25.13;;;13.07;;
39264;SDS011;42646;51.910;7.724;2024-01-11T07:02:57;27.08;;;13.35;;
39264;SDS011;42646;51.910;7.724;2024-01-11T07:05:24;29.90;;;13.35;;
39264;SDS011;42646;51.910;7.724;2024-01-11T07:07:52;30.02;;;12.18;;
39264;SDS011;42646;51.910;7.724;2024-01-11T07:10:20;30.92;;;13.88;;
39264;SDS011;42646;51.910;7.724;2024-01-11T07:12:48;28.42;;;12.70;;
39264;SDS011;42646;51.910;7.724;2024-01-11T07:15:16;26.92;;;12.77;;
39264;SDS011;42646;51.910;7.724;2024-01-11T07:17:45;28.67;;;13.20;;
39264;SDS011;42646;51.910;7.724;2024-01-11T07:20:13;26.17;;;13.00;;
39264;SDS011;42646;51.910;7.724;2024-01-11T07:22:43;27.70;;;12.73;;
39264;SDS011;42646;51.910;7.724;2024-01-11T07:25:10;29.15;;;13.32;;
39264;SDS011;42646;51.910;7.724;2024-01-11T07:27:38;25.25;;;12.90;;
39264;SDS011;42646;51.910;7.724;2024-01-11T07:30:06;34.25;;;14.57;;
39264;SDS011;42646;51.910;7.724;2024-01-11T07:32:35;32.20;;;14.52;;
39264;SDS011;42646;51.910;7.724;2024-01-11T07:35:04;33.78;;;14.15;;
39264;SDS011;42646;51.910;7.724;2024-01-11T07:37:38;26.67;;;13.90;;
39264;SDS011;42646;51.910;7.724;2024-01-11T07:40:06;27.23;;;13.27;;
39264;SDS011;42646;51.910;7.724;2024-01-11T07:42:37;28.67;;;12.95;;
39264;SDS011;42646;51.910;7.724;2024-01-11T07:45:05;30.92;;;13.40;;
39264;SDS011;42646;51.910;7.724;2024-01-11T07:47:33;28.70;;;13.05;;
39264;SDS011;42646;51.910;7.724;2024-01-11T07:50:01;27.83;;;12.93;;
39264;SDS011;42646;51.910;7.724;2024-01-11T07:52:31;29.92;;;14.18;;
39264;SDS011;42646;51.910;7.724;2024-01-11T07:54:58;30.75;;;14.45;;
39264;SDS011;42646;51.910;7.724;2024-01-11T07:57:32;30.05;;;13.25;;
39264;SDS011;42646;51.910;7.724;2024-01-11T08:00:00;33.65;;;13.35;;
39264;SDS011;42646;51.910;7.724;2024-01-11T08:02:37;28.95;;;13.45;;
39264;SDS011;42646;51.910;7.724;2024-01-11T08:05:06;27.90;;;13.70;;
39264;SDS011;42646;51.910;7.724;2024-01-11T08:07:35;29.60;;;13.35;;
39264;SDS011;42646;51.910;7.724;2024-01-11T08:10:03;26.17;;;13.60;;
39264;SDS011;42646;51.910;7.724;2024-01-11T08:12:33;28.73;;;13.35;;
39264;SDS011;42646;51.910;7.724;2024-01-11T08:15:00;30.67;;;14.02;;
39264;SDS011;42646;51.910;7.724;2024-01-11T08:17:28;28.00;;;13.55;;
39264;SDS011;42646;51.910;7.724;2024-01-11T08:19:56;29.80;;;13.48;;
39264;SDS011;42646;51.910;7.724;2024-01-11T08:22:24;27.80;;;12.70;;
39264;SDS011;42646;51.910;7.724;2024-01-11T08:24:54;28.63;;;13.20;;
39264;SDS011;42646;51.910;7.724;2024-01-11T08:27:22;30.40;;;14.27;;
39264;SDS011;42646;51.910;7.724;2024-01-11T08:29:49;30.40;;;14.25;;
39264;SDS011;42646;51.910;7.724;2024-01-11T08:32:17;28.30;;;13.35;;
39264;SDS011;42646;51.910;7.724;2024-01-11T08:34:57;30.83;;;14.02;;
39264;SDS011;42646;51.910;7.724;2024-01-11T08:37:25;28.30;;;13.88;;
39264;SDS011;42646;51.910;7.724;2024-01-11T08:39:54;32.33;;;13.82;;
39264;SDS011;42646;51.910;7.724;2024-01-11T08:42:22;29.80;;;14.82;;
39264;SDS011;42646;51.910;7.724;2024-01-11T08:44:49;27.90;;;13.60;;
39264;SDS011;42646;51.910;7.724;2024-01-11T08:47:18;27.95;;;13.82;;
39264;SDS011;42646;51.910;7.724;2024-01-11T08:49:46;28.42;;;14.48;;
39264;SDS011;42646;51.910;7.724;2024-01-11T08:52:13;29.13;;;13.75;;
39264;SDS011;42646;51.910;7.724;2024-01-11T08:54:41;31.77;;;14.75;;
39264;SDS011;42646;51.910;7.724;2024-01-11T08:57:10;29.05;;;13.90;;
39264;SDS011;42646;51.910;7.724;2024-01-11T08:59:38;27.98;;;14.52;;
39264;SDS011;42646;51.910;7.724;2024-01-11T09:02:05;34.35;;;14.77;;
39264;SDS011;42646;51.910;7.724;2024-01-11T09:04:43;31.92;;;15.38;;
39264;SDS011;42646;51.910;7.724;2024-01-11T09:07:11;31.75;;;14.82;;
39264;SDS011;42646;51.910;7.724;2024-01-11T09:09:39;31.60;;;15.27;;
39264;SDS011;42646;51.910;7.724;2024-01-11T09:12:20;30.48;;;15.23;;
39264;SDS011;42646;51.910;7.724;2024-01-11T09:14:48;28.77;;;15.15;;
39264;SDS011;42646;51.910;7.724;2024-01-11T09:17:16;31.60;;;15.55;;
39264;SDS011;42646;51.910;7.724;2024-01-11T09:19:43;39.20;;;18.60;;
39264;SDS011;42646;51.910;7.724;2024-01-11T09:22:11;37.85;;;18.15;;
39264;SDS011;42646;51.910;7.724;2024-01-11T09:24:39;35.90;;;17.73;;
39264;SDS011;42646;51.910;7.724;2024-01-11T09:27:06;36.90;;;17.48;;
39264;SDS011;42646;51.910;7.724;2024-01-11T09:29:35;38.95;;;17.38;;
39264;SDS011;42646;51.910;7.724;2024-01-11T09:32:03;35.95;;;17.65;;
39264;SDS011;42646;51.910;7.724;2024-01-11T09:34:32;35.00;;;17.35;;
39264;SDS011;42646;51.910;7.724;2024-01-11T09:37:00;34.28;;;16.50;;
39264;SDS011;42646;51.910;7.724;2024-01-11T09:39:27;34.65;;;16.65;;
39264;SDS011;42646;51.910;7.724;2024-01-11T09:41:57;33.47;;;16.25;;
39264;SDS011;42646;51.910;7.724;2024-01-11T09:44:26;31.23;;;16.50;;
39264;SDS011;42646;51.910;7.724;2024-01-11T09:46:55;31.23;;;15.85;;
39264;SDS011;42646;51.910;7.724;2024-01-11T09:51:53;34.80;;;15.63;;
39264;SDS011;42646;51.910;7.724;2024-01-11T09:54:23;36.42;;;17.00;;
39264;SDS011;42646;51.910;7.724;2024-01-11T09:56:52;32.53;;;15.32;;
39264;SDS011;42646;51.910;7.724;2024-01-11T09:59:21;31.52;;;16.27;;
39264;SDS011;42646;51.910;7.724;2024-01-11T10:01:52;31.17;;;14.70;;
39264;SDS011;42646;51.910;7.724;2024-01-11T10:04:21;31.17;;;15.65;;
39264;SDS011;42646;51.910;7.724;2024-01-11T10:06:49;32.85;;;16.08;;
39264;SDS011;42646;51.910;7.724;2024-01-11T10:09:19;29.08;;;14.77;;
39264;SDS011;42646;51.910;7.724;2024-01-11T10:11:47;29.80;;;14.55;;
39264;SDS011;42646;51.910;7.724;2024-01-11T10:14:15;33.88;;;15.95;;
39264;SDS011;42646;51.910;7.724;2024-01-11T10:16:43;29.90;;;15.10;;
39264;SDS011;42646;51.910;7.724;2024-01-11T10:19:11;33.22;;;16.05;;
39264;SDS011;42646;51.910;7.724;2024-01-11T10:21:43;29.83;;;16.40;;
39264;SDS011;42646;51.910;7.724;2024-01-11T10:24:14;35.47;;;16.83;;
39264;SDS011;42646;51.910;7.724;2024-01-11T10:26:45;27.90;;;14.02;;
39264;SDS011;42646;51.910;7.724;2024-01-11T10:29:13;33.55;;;15.70;;
39264;SDS011;42646;51.910;7.724;2024-01-11T10:31:41;31.67;;;15.45;;
39264;SDS011;42646;51.910;7.724;2024-01-11T10:34:08;35.83;;;16.95;;
39264;SDS011;42646;51.910;7.724;2024-01-11T10:36:36;29.90;;;16.42;;
39264;SDS011;42646;51.910;7.724;2024-01-11T10:39:05;33.67;;;16.38;;
39264;SDS011;42646;51.910;7.724;2024-01-11T10:41:36;30.70;;;16.23;;
39264;SDS011;42646;51.910;7.724;2024-01-11T10:44:08;32.22;;;15.77;;
39264;SDS011;42646;51.910;7.724;2024-01-11T10:46:44;35.80;;;17.05;;
39264;SDS011;42646;51.910;7.724;2024-01-11T10:49:14;29.98;;;14.77;;
39264;SDS011;42646;51.910;7.724;2024-01-11T10:51:45;30.77;;;14.88;;
39264;SDS011;42646;51.910;7.724;2024-01-11T10:54:19;29.75;;;14.98;;
39264;SDS011;42646;51.910;7.724;2024-01-11T10:56:49;25.85;;;15.15;;
39264;SDS011;42646;51.910;7.724;2024-01-11T10:59:17;32.35;;;15.25;;
39264;SDS011;42646;51.910;7.724;2024-01-11T11:01:47;26.17;;;13.55;;
39264;SDS011;42646;51.910;7.724;2024-01-11T11:04:15;26.05;;;13.95;;
39264;SDS011;42646;51.910;7.724;2024-01-11T11:06:48;25.85;;;13.90;;
39264;SDS011;42646;51.910;7.724;2024-01-11T11:09:18;28.80;;;15.15;;
39264;SDS011;42646;51.910;7.724;2024-01-11T11:11:47;29.85;;;13.95;;
39264;SDS011;42646;51.910;7.724;2024-01-11T11:14:16;26.45;;;14.10;;
39264;SDS011;42646;51.910;7.724;2024-01-11T11:16:44;24.80;;;13.25;;
39264;SDS011;42646;51.910;7.724;2024-01-11T11:19:12;23.88;;;12.93;;
39264;SDS011;42646;51.910;7.724;2024-01-11T11:21:43;28.15;;;13.68;;
39264;SDS011;42646;51.910;7.724;2024-01-11T11:24:12;29.42;;;13.98;;
39264;SDS011;42646;51.910;7.724;2024-01-11T11:26:41;25.92;;;12.70;;
39264;SDS011;42646;51.910;7.724;2024-01-11T11:29:09;27.13;;;13.45;;
39264;SDS011;42646;51.910;7.724;2024-01-11T11:31:37;23.05;;;12.07;;
39264;SDS011;42646;51.910;7.724;2024-01-11T11:34:10;23.15;;;12.15;;
39264;SDS011;42646;51.910;7.724;2024-01-11T11:36:39;22.25;;;12.32;;
39264;SDS011;42646;51.910;7.724;2024-01-11T11:39:09;24.45;;;13.05;;
39264;SDS011;42646;51.910;7.724;2024-01-11T11:41:38;24.75;;;13.10;;
39264;SDS011;42646;51.910;7.724;2024-01-11T11:44:11;20.75;;;11.75;;
39264;SDS011;42646;51.910;7.724;2024-01-11T11:46:40;26.63;;;13.63;;
39264;SDS011;42646;51.910;7.724;2024-01-11T11:49:08;22.10;;;11.70;;
39264;SDS011;42646;51.910;7.724;2024-01-11T11:51:37;17.58;;;9.75;;
39264;SDS011;42646;51.910;7.724;2024-01-11T11:54:06;20.40;;;10.43;;
39264;SDS011;42646;51.910;7.724;2024-01-11T11:56:35;17.55;;;10.02;;
39264;SDS011;42646;51.910;7.724;2024-01-11T11:59:04;19.55;;;9.23;;
39264;SDS011;42646;51.910;7.724;2024-01-11T12:01:33;21.63;;;10.57;;
39264;SDS011;42646;51.910;7.724;2024-01-11T12:04:02;19.15;;;9.68;;
39264;SDS011;42646;51.910;7.724;2024-01-11T12:06:30;21.23;;;9.70;;
39264;SDS011;42646;51.910;7.724;2024-01-11T12:08:58;19.02;;;9.57;;
39264;SDS011;42646;51.910;7.724;2024-01-11T12:11:25;17.92;;;9.50;;
39264;SDS011;42646;51.910;7.724;2024-01-11T12:13:53;16.80;;;8.77;;
39264;SDS011;42646;51.910;7.724;2024-01-11T12:16:23;18.70;;;9.25;;
39264;SDS011;42646;51.910;7.724;2024-01-11T12:18:52;17.83;;;9.90;;
39264;SDS011;42646;51.910;7.724;2024-01-11T12:21:20;20.70;;;9.38;;
39264;SDS011;42646;51.910;7.724;2024-01-11T12:23:48;18.95;;;9.10;;
39264;SDS011;42646;51.910;7.724;2024-01-11T12:26:16;18.85;;;9.18;;
39264;SDS011;42646;51.910;7.724;2024-01-11T12:28:48;18.75;;;9.18;;
39264;SDS011;42646;51.910;7.724;2024-01-11T12:31:16;19.50;;;8.82;;
39264;SDS011;42646;51.910;7.724;2024-01-11T12:33:45;18.73;;;8.90;;
39264;SDS011;42646;51.910;7.724;2024-01-11T12:36:15;19.10;;;9.68;;
39264;SDS011;42646;51.910;7.724;2024-01-11T12:38:46;20.05;;;9.50;;
39264;SDS011;42646;51.910;7.724;2024-01-11T12:41:18;20.00;;;9.60;;
39264;SDS011;42646;51.910;7.724;2024-01-11T12:43:48;19.27;;;9.02;;
39264;SDS011;42646;51.910;7.724;2024-01-11T12:46:16;22.73;;;9.38;;
39264;SDS011;42646;51.910;7.724;2024-01-11T12:48:44;20.30;;;9.93;;
39264;SDS011;42646;51.910;7.724;2024-01-11T12:51:11;20.17;;;9.60;;
39264;SDS011;42646;51.910;7.724;2024-01-11T12:53:48;17.85;;;9.45;;
39264;SDS011;42646;51.910;7.724;2024-01-11T12:56:16;19.38;;;8.75;;
39264;SDS011;42646;51.910;7.724;2024-01-11T12:58:45;20.50;;;9.45;;
39264;SDS011;42646;51.910;7.724;2024-01-11T13:01:13;21.40;;;10.13;;
39264;SDS011;42646;51.910;7.724;2024-01-11T13:03:43;22.52;;;10.43;;
39264;SDS011;42646;51.910;7.724;2024-01-11T13:06:14;22.27;;;10.63;;
39264;SDS011;42646;51.910;7.724;2024-01-11T13:08:43;18.95;;;9.25;;
39264;SDS011;42646;51.910;7.724;2024-01-11T13:11:12;21.10;;;10.20;;
39264;SDS011;42646;51.910;7.724;2024-01-11T13:16:13;19.05;;;9.90;;
39264;SDS011;42646;51.910;7.724;2024-01-11T13:18:41;20.67;;;10.10;;
39264;SDS011;42646;51.910;7.724;2024-01-11T13:21:09;24.63;;;10.65;;
39264;SDS011;42646;51.910;7.724;2024-01-11T13:23:38;19.83;;;9.27;;
39264;SDS011;42646;51.910;7.724;2024-01-11T13:26:07;19.15;;;9.63;;
39264;SDS011;42646;51.910;7.724;2024-01-11T13:28:37;20.27;;;9.95;;
39264;SDS011;42646;51.910;7.724;2024-01-11T13:31:05;22.15;;;10.15;;
39264;SDS011;42646;51.910;7.724;2024-01-11T13:33:36;21.05;;;10.23;;
39264;SDS011;42646;51.910;7.724;2024-01-11T13:36:04;21.42;;;9.68;;
39264;SDS011;42646;51.910;7.724;2024-01-11T13:38:33;20.38;;;10.30;;
39264;SDS011;42646;51.910;7.724;2024-01-11T13:41:01;17.48;;;10.15;;
39264;SDS011;42646;51.910;7.724;2024-01-11T13:43:29;17.42;;;9.60;;
39264;SDS011;42646;51.910;7.724;2024-01-11T13:45:58;20.10;;;9.18;;
39264;SDS011;42646;51.910;7.724;2024-01-11T13:48:26;20.33;;;10.05;;
39264;SDS011;42646;51.910;7.724;2024-01-11T13:50:53;18.98;;;8.95;;
39264;SDS011;42646;51.910;7.724;2024-01-11T13:53:21;20.25;;;9.77;;
39264;SDS011;42646;51.910;7.724;2024-01-11T13:55:49;18.95;;;9.05;;
39264;SDS011;42646;51.910;7.724;2024-01-11T13:58:17;23.17;;;10.05;;
39264;SDS011;42646;51.910;7.724;2024-01-11T14:00:45;19.15;;;10.23;;
39264;SDS011;42646;51.910;7.724;2024-01-11T14:03:14;18.13;;;9.20;;
39264;SDS011;42646;51.910;7.724;2024-01-11T14:05:42;18.95;;;9.55;;
39264;SDS011;42646;51.910;7.724;2024-01-11T14:08:09;19.02;;;9.77;;
39264;SDS011;42646;51.910;7.724;2024-01-11T14:10:38;20.67;;;9.70;;
39264;SDS011;42646;51.910;7.724;2024-01-11T14:13:05;21.50;;;10.32;;
39264;SDS011;42646;51.910;7.724;2024-01-11T14:15:33;21.95;;;10.70;;
39264;SDS011;42646;51.910;7.724;2024-01-11T14:18:01;26.75;;;10.93;;
39264;SDS011;42646;51.910;7.724;2024-01-11T14:20:31;22.17;;;10.18;;
39264;SDS011;42646;51.910;7.724;2024-01-11T14:23:01;25.95;;;11.65;;
39264;SDS011;42646;51.910;7.724;2024-01-11T14:25:29;25.63;;;11.60;;
39264;SDS011;42646;51.910;7.724;2024-01-11T14:27:56;21.02;;;11.05;;
39264;SDS011;42646;51.910;7.724;2024-01-11T14:30:24;20.90;;;11.27;;
39264;SDS011;42646;51.910;7.724;2024-01-11T14:32:52;25.08;;;11.82;;
39264;SDS011;42646;51.910;7.724;2024-01-11T14:35:20;23.05;;;11.43;;